0CO8 weather

Cartwheel Airport
Mead, Colorado, United States

Public forecast

Using degrees Fahrenheit for public forecast. Weather courtesy of forecast.io.

METAR (pilot weather report)

Closest report is Vance Brand Airport, 7.4 nm (13.7 km) WSW. Retrieved 2019/08/26 06:35 UTC (9 minutes ago):

KLMO 260635Z AUTO 02003KT 10SM CLR 19/06 A2992 RMK AO2 T01900057

TAF (pilot weather forecast)

Closest forecast is Rocky Mountain Metropolitan Airport, 18.6 nm (34.5 km) SSW. Retrieved 2019/08/26 06:54 UTC (0 seconds ago):

TAF KBJC 260552Z 2606/2706 34015KT P6SM FEW120 FM261100 01012G20KT P6SM SCT012 TEMPO 2612/2614 BKN012 FM261500 03010KT P6SM SCT020 FM262000 05012KT P6SM SCT045 FM270100 VRB04KT P6SM FEW060